Time;durP1;ratioP1;P1;durP2;ratioP2;P2;SDS_P1;SDS_P2;PMS_P1;PMS_P2;Temp;Humidity;BMP_temperature;BMP_pressure;BME280_temperature;BME280_humidity;BME280_pressure;Samples;Min_cycle;Max_cycle;Signal;HPM_P1;HPM_P2
2021/12/21 00:01:01;;;;;;;16.95;14.40;;;2.00;98.30;;;;;;4134033;28;20231;-78
2021/12/21 00:03:05;;;;;;;29.77;23.42;;;2.00;98.30;;;;;;4133095;28;20228;-80
2021/12/21 00:05:15;;;;;;;49.28;34.85;;;2.00;98.30;;;;;;4133528;28;20238;-81
2021/12/21 00:07:17;;;;;;;26.98;19.92;;;2.00;98.30;;;;;;4134670;28;20711;-81
2021/12/21 00:09:22;;;;;;;22.90;15.10;;;2.10;98.30;;;;;;4133807;28;20217;-81
2021/12/21 00:11:24;;;;;;;16.38;11.48;;;2.00;98.30;;;;;;4133963;28;20212;-81
2021/12/21 00:13:42;;;;;;;15.23;11.80;;;2.10;98.30;;;;;;4134074;28;20216;-81
2021/12/21 00:15:54;;;;;;;34.13;21.83;;;2.00;98.30;;;;;;4134181;28;20581;-80
2021/12/21 00:18:02;;;;;;;31.83;21.95;;;2.00;98.30;;;;;;4131602;28;20204;-80
2021/12/21 00:20:22;;;;;;;30.35;19.33;;;1.90;98.30;;;;;;4133886;28;20211;-80
2021/12/21 00:23:04;;;;;;;20.63;14.90;;;2.00;98.30;;;;;;4132650;28;20279;-80
2021/12/21 00:25:03;;;;;;;15.60;12.18;;;2.00;98.30;;;;;;4128436;28;20234;-80
2021/12/21 00:27:08;;;;;;;15.80;11.60;;;2.10;98.30;;;;;;4132610;28;20216;-80
2021/12/21 00:29:12;;;;;;;20.83;12.43;;;2.10;98.30;;;;;;4133643;28;20214;-80
2021/12/21 00:31:15;;;;;;;15.10;11.70;;;2.10;98.30;;;;;;4132597;28;20214;-80
2021/12/21 00:33:18;;;;;;;20.33;14.60;;;2.10;98.30;;;;;;4133237;28;20235;-81
2021/12/21 00:35:21;;;;;;;16.02;12.50;;;2.00;98.30;;;;;;4132767;28;20229;-80
2021/12/21 00:37:27;;;;;;;17.67;12.70;;;2.00;98.30;;;;;;4129431;28;20215;-81
2021/12/21 00:39:30;;;;;;;18.90;12.38;;;2.00;98.30;;;;;;4133436;28;20263;-81
2021/12/21 00:41:34;;;;;;;14.32;10.65;;;1.80;98.30;;;;;;4133406;28;20675;-81
2021/12/21 00:43:37;;;;;;;19.63;11.70;;;1.70;98.30;;;;;;4133261;28;20677;-80
2021/12/21 00:45:40;;;;;;;17.13;12.20;;;1.80;98.30;;;;;;4133212;28;20212;-81
2021/12/21 00:47:47;;;;;;;15.40;11.52;;;1.80;98.30;;;;;;4131354;28;20208;-80
2021/12/21 00:49:58;;;;;;;14.88;10.82;;;1.70;98.30;;;;;;4129725;28;20238;-81
2021/12/21 00:52:01;;;;;;;15.48;11.25;;;1.80;98.30;;;;;;4133400;28;20208;-81
2021/12/21 00:54:06;;;;;;;18.73;12.85;;;1.80;98.30;;;;;;4128691;28;20237;-80
2021/12/21 00:56:10;;;;;;;16.63;13.02;;;1.80;98.30;;;;;;4130355;28;20212;-81
2021/12/21 00:58:14;;;;;;;14.18;12.68;;;1.80;98.30;;;;;;4129374;28;20646;-81
2021/12/21 01:00:19;;;;;;;15.20;12.77;;;1.90;98.30;;;;;;4128186;28;20208;-81
2021/12/21 01:02:22;;;;;;;19.73;13.55;;;1.90;98.30;;;;;;4129769;28;20208;-81
2021/12/21 01:04:31;;;;;;;17.05;12.90;;;1.80;98.30;;;;;;4130883;28;20290;-81
2021/12/21 01:06:42;;;;;;;15.20;12.15;;;1.80;98.30;;;;;;4134497;28;20636;-80
2021/12/21 01:08:58;;;;;;;13.45;11.43;;;1.70;98.30;;;;;;4132936;28;20220;-81
2021/12/21 01:11:08;;;;;;;14.15;11.07;;;1.70;98.30;;;;;;4132199;28;20259;-80
2021/12/21 01:13:17;;;;;;;12.82;11.45;;;1.70;98.30;;;;;;4133640;28;20201;-80
2021/12/21 01:15:37;;;;;;;14.55;11.38;;;1.70;98.30;;;;;;4134631;28;20228;-79
2021/12/21 01:17:50;;;;;;;16.60;11.10;;;1.70;98.30;;;;;;4133786;28;20243;-80
2021/12/21 01:20:02;;;;;;;13.38;11.27;;;1.60;98.30;;;;;;4127113;28;20230;-81
2021/12/21 01:22:14;;;;;;;16.48;11.50;;;1.40;98.30;;;;;;4133455;28;20719;-80
2021/12/21 01:24:32;;;;;;;15.07;12.10;;;1.50;98.30;;;;;;4127734;28;20259;-79
2021/12/21 01:26:45;;;;;;;12.45;11.15;;;1.50;98.30;;;;;;4132824;28;20208;-79
2021/12/21 01:28:54;;;;;;;15.88;11.63;;;1.50;98.30;;;;;;4131643;28;20262;-81
2021/12/21 01:31:17;;;;;;;14.55;11.65;;;1.50;98.30;;;;;;4128628;28;20671;-80
2021/12/21 01:33:35;;;;;;;12.45;10.85;;;1.60;98.30;;;;;;4132798;28;20216;-80
2021/12/21 01:35:43;;;;;;;15.35;11.73;;;1.60;98.30;;;;;;4129584;28;20215;-81
2021/12/21 01:37:54;;;;;;;14.25;11.77;;;1.70;98.30;;;;;;4130852;28;20579;-80
2021/12/21 01:40:10;;;;;;;16.58;12.05;;;1.60;98.30;;;;;;4131539;28;20624;-81
2021/12/21 01:42:20;;;;;;;12.85;11.52;;;1.70;98.30;;;;;;4132310;28;20219;-80
2021/12/21 01:44:42;;;;;;;17.75;12.43;;;1.70;98.30;;;;;;4131034;28;20232;-81
2021/12/21 01:51:27;;;;;;;13.05;10.30;;;1.60;98.30;;;;;;4127877;28;20207;-80
2021/12/21 01:53:30;;;;;;;14.25;10.15;;;1.40;98.30;;;;;;4131693;28;20215;-80
2021/12/21 01:55:33;;;;;;;13.65;12.20;;;1.20;98.30;;;;;;4132422;28;20673;-80
2021/12/21 01:57:36;;;;;;;14.82;10.80;;;1.30;98.30;;;;;;4134137;28;20208;-79
2021/12/21 01:59:41;;;;;;;12.25;10.65;;;1.30;98.30;;;;;;4127833;28;20224;-81
2021/12/21 02:01:43;;;;;;;18.13;12.50;;;1.30;98.30;;;;;;4124911;28;20210;-80
2021/12/21 02:03:48;;;;;;;13.75;11.25;;;1.20;98.30;;;;;;4125882;28;20208;-79
2021/12/21 02:05:51;;;;;;;13.57;11.90;;;1.20;98.30;;;;;;4130772;28;20208;-80
2021/12/21 02:07:54;;;;;;;20.33;14.07;;;1.20;98.30;;;;;;4133550;28;20208;-80
2021/12/21 02:09:57;;;;;;;23.10;14.85;;;1.30;98.30;;;;;;4132009;28;20215;-80
2021/12/21 02:12:00;;;;;;;23.27;16.00;;;1.40;98.30;;;;;;4133429;28;20216;-81
2021/12/21 02:14:05;;;;;;;24.38;15.23;;;1.40;98.30;;;;;;4131959;28;20228;-81
2021/12/21 02:16:08;;;;;;;21.88;16.73;;;1.40;98.30;;;;;;4131002;28;20205;-81
2021/12/21 02:18:37;;;;;;;19.00;14.23;;;1.40;98.30;;;;;;4131083;28;20212;-81
2021/12/21 02:20:46;;;;;;;14.93;13.35;;;1.30;98.30;;;;;;4134734;28;20216;-81
2021/12/21 02:22:56;;;;;;;18.83;12.77;;;1.40;98.30;;;;;;4134142;28;20220;-81
2021/12/21 02:25:06;;;;;;;16.95;12.07;;;1.40;98.30;;;;;;4128211;28;20239;-81
2021/12/21 02:27:25;;;;;;;16.40;13.15;;;1.50;98.30;;;;;;4133238;28;20207;-81
2021/12/21 02:29:30;;;;;;;22.15;13.93;;;1.40;98.30;;;;;;4134267;28;20290;-81
2021/12/21 02:31:33;;;;;;;17.15;12.85;;;1.40;98.30;;;;;;4133364;28;20208;-80
2021/12/21 02:33:36;;;;;;;20.35;13.80;;;1.30;98.30;;;;;;4129593;28;20223;-81
2021/12/21 02:35:40;;;;;;;21.73;15.13;;;1.40;98.30;;;;;;4132430;28;20259;-81
2021/12/21 02:37:43;;;;;;;17.35;13.95;;;1.40;98.30;;;;;;4130703;28;20259;-80
2021/12/21 02:39:46;;;;;;;22.88;14.40;;;1.40;98.30;;;;;;4129602;28;20213;-81
2021/12/21 02:41:50;;;;;;;17.10;13.02;;;1.30;98.30;;;;;;4131136;28;20707;-81
2021/12/21 02:43:54;;;;;;;17.50;13.57;;;1.30;98.30;;;;;;4130231;28;20779;-81
2021/12/21 02:45:57;;;;;;;19.67;12.93;;;1.30;98.30;;;;;;4133638;28;20220;-81
2021/12/21 02:48:00;;;;;;;14.43;11.55;;;1.40;98.30;;;;;;4132731;28;20247;-80
2021/12/21 02:50:04;;;;;;;16.30;12.60;;;1.40;98.30;;;;;;4134480;28;20330;-81
2021/12/21 02:52:08;;;;;;;16.67;12.68;;;1.30;98.30;;;;;;4130260;28;20209;-81
2021/12/21 02:54:13;;;;;;;18.27;13.02;;;1.30;98.30;;;;;;4132913;28;20235;-80
2021/12/21 02:56:16;;;;;;;20.83;13.27;;;1.30;98.30;;;;;;4134287;28;20208;-81
2021/12/21 02:58:19;;;;;;;18.38;12.93;;;1.30;98.30;;;;;;4133295;28;20676;-81
2021/12/21 03:00:22;;;;;;;16.58;12.52;;;1.30;98.30;;;;;;4131223;28;20204;-81
2021/12/21 03:02:27;;;;;;;19.73;14.18;;;1.40;98.30;;;;;;4129922;28;20215;-81
2021/12/21 03:04:30;;;;;;;22.63;14.05;;;1.30;98.30;;;;;;4128729;28;20223;-80
2021/12/21 03:07:03;;;;;;;22.15;13.02;;;1.40;98.30;;;;;;4126371;28;20275;-81
2021/12/21 03:09:18;;;;;;;17.73;13.90;;;1.30;98.30;;;;;;4127122;28;20212;-80
2021/12/21 03:11:35;;;;;;;19.00;14.13;;;1.30;98.30;;;;;;4127954;28;20707;-80
2021/12/21 03:14:03;;;;;;;17.88;11.95;;;1.30;98.30;;;;;;4131255;28;20665;-80
2021/12/21 03:16:06;;;;;;;19.83;13.13;;;1.30;98.30;;;;;;4132431;28;20240;-80
2021/12/21 03:18:09;;;;;;;23.50;14.60;;;1.20;98.30;;;;;;4140341;28;20201;-79
2021/12/21 03:20:12;;;;;;;17.70;13.45;;;1.20;98.30;;;;;;4146792;28;20228;-79
2021/12/21 03:22:17;;;;;;;17.10;13.02;;;1.20;98.30;;;;;;4147442;28;20216;-78
2021/12/21 03:24:21;;;;;;;17.33;12.75;;;1.20;98.30;;;;;;4147298;28;20228;-79
2021/12/21 03:26:24;;;;;;;15.48;12.13;;;1.20;98.30;;;;;;4147256;28;20203;-80
2021/12/21 03:28:27;;;;;;;20.55;12.45;;;1.00;98.30;;;;;;4148481;28;20257;-79
2021/12/21 03:30:30;;;;;;;16.08;12.73;;;0.90;98.30;;;;;;4147229;28;20203;-78
2021/12/21 03:32:33;;;;;;;17.30;12.20;;;0.90;98.30;;;;;;4144362;28;20605;-81
2021/12/21 03:34:36;;;;;;;20.20;13.10;;;0.90;98.30;;;;;;4133468;28;20227;-79
2021/12/21 03:36:40;;;;;;;18.20;12.57;;;0.90;98.30;;;;;;4135031;28;20204;-80
2021/12/21 03:38:49;;;;;;;24.73;14.98;;;0.90;98.30;;;;;;4134766;28;20228;-80
2021/12/21 03:40:54;;;;;;;18.13;13.13;;;0.90;98.30;;;;;;4136904;28;20578;-81
2021/12/21 03:42:57;;;;;;;16.17;12.55;;;0.80;98.30;;;;;;4135927;28;20222;-81
2021/12/21 03:45:00;;;;;;;15.75;12.48;;;0.80;98.30;;;;;;4136960;28;20264;-81
2021/12/21 03:47:03;;;;;;;18.15;12.40;;;0.70;98.30;;;;;;4136530;28;20204;-81
2021/12/21 03:49:31;;;;;;;18.38;13.23;;;0.80;98.30;;;;;;4136098;28;20664;-81
2021/12/21 03:51:29;;;;;;;19.40;13.65;;;0.90;98.30;;;;;;4133646;28;20208;-80
2021/12/21 03:53:32;;;;;;;15.85;12.82;;;0.90;98.30;;;;;;4140603;28;20220;-81
2021/12/21 03:55:35;;;;;;;17.52;14.40;;;0.90;98.30;;;;;;4134625;28;20216;-81
2021/12/21 03:57:39;;;;;;;17.17;13.55;;;1.00;98.30;;;;;;4136226;28;20255;-79
2021/12/21 03:59:43;;;;;;;20.63;12.70;;;1.00;98.30;;;;;;4135783;28;20216;-81
2021/12/21 04:01:47;;;;;;;16.98;12.70;;;0.90;98.30;;;;;;4133807;28;20212;-80
2021/12/21 04:03:50;;;;;;;19.60;13.25;;;0.90;98.30;;;;;;4134018;28;20235;-79
2021/12/21 04:05:53;;;;;;;17.17;12.45;;;0.80;98.30;;;;;;4134103;28;20208;-81
2021/12/21 04:07:56;;;;;;;14.65;11.32;;;0.70;98.30;;;;;;4131253;28;20216;-81
2021/12/21 04:10:00;;;;;;;15.32;11.23;;;0.70;98.30;;;;;;4135035;28;20633;-80
2021/12/21 04:12:03;;;;;;;14.95;11.80;;;0.60;98.30;;;;;;4134516;28;20231;-80
2021/12/21 04:14:07;;;;;;;16.42;11.23;;;0.50;98.30;;;;;;4134923;28;20232;-80
2021/12/21 04:16:10;;;;;;;17.40;11.95;;;0.50;98.30;;;;;;4129337;28;20229;-81
2021/12/21 04:18:14;;;;;;;16.05;12.00;;;0.60;98.30;;;;;;4131981;28;20256;-81
2021/12/21 04:20:17;;;;;;;17.75;12.93;;;0.70;98.30;;;;;;4133544;28;20689;-80
2021/12/21 04:22:22;;;;;;;16.88;12.10;;;0.80;98.30;;;;;;4132009;28;20212;-80
2021/12/21 04:24:25;;;;;;;19.63;13.40;;;0.70;98.30;;;;;;4131749;28;20225;-80
2021/12/21 04:26:27;;;;;;;15.45;11.68;;;0.80;98.30;;;;;;4130777;28;20201;-80
2021/12/21 04:28:30;;;;;;;15.23;11.65;;;0.80;98.30;;;;;;4134361;28;20209;-81
2021/12/21 04:30:35;;;;;;;21.25;14.18;;;0.80;98.30;;;;;;4132301;28;20604;-80
2021/12/21 04:32:38;;;;;;;16.65;12.30;;;0.80;98.30;;;;;;4129700;28;20208;-80
2021/12/21 04:34:42;;;;;;;16.48;12.93;;;0.80;98.30;;;;;;4128379;28;20236;-80
2021/12/21 04:36:46;;;;;;;20.80;13.07;;;0.80;98.30;;;;;;4130378;28;20238;-80
2021/12/21 04:38:50;;;;;;;21.38;13.77;;;0.80;98.30;;;;;;4132731;28;20224;-80
2021/12/21 04:41:02;;;;;;;20.95;14.38;;;0.80;98.30;;;;;;4132216;28;20497;-80
2021/12/21 04:43:06;;;;;;;18.63;13.07;;;0.80;98.30;;;;;;4125030;28;20215;-80
2021/12/21 04:45:09;;;;;;;14.40;11.90;;;0.80;98.30;;;;;;4128972;28;20274;-80
2021/12/21 04:47:13;;;;;;;17.40;13.00;;;0.80;98.30;;;;;;4133472;28;20216;-82
2021/12/21 04:49:16;;;;;;;16.67;12.27;;;0.70;98.30;;;;;;4133421;28;20216;-81
2021/12/21 04:51:19;;;;;;;14.13;11.73;;;0.80;98.30;;;;;;4129564;28;20205;-80
2021/12/21 04:53:22;;;;;;;18.67;13.43;;;0.80;98.30;;;;;;4130700;28;20219;-80
2021/12/21 04:55:25;;;;;;;15.20;12.50;;;0.70;98.30;;;;;;4127372;28;20248;-80
2021/12/21 04:57:28;;;;;;;19.42;13.98;;;0.60;98.30;;;;;;4132440;28;20777;-80
2021/12/21 04:59:31;;;;;;;15.68;13.55;;;0.60;98.30;;;;;;4139362;28;20219;-80
2021/12/21 05:01:34;;;;;;;24.13;15.40;;;0.60;98.30;;;;;;4131114;28;20219;-80
2021/12/21 05:03:38;;;;;;;17.48;13.93;;;0.60;98.30;;;;;;4131187;28;20298;-80
2021/12/21 05:05:41;;;;;;;19.85;13.20;;;0.60;98.30;;;;;;4130903;28;20657;-80
2021/12/21 05:07:50;;;;;;;18.05;12.80;;;0.60;98.30;;;;;;4130186;28;20263;-80
2021/12/21 05:09:56;;;;;;;19.67;14.48;;;0.50;98.30;;;;;;4134545;28;20263;-80
2021/12/21 05:12:03;;;;;;;15.25;12.70;;;0.40;98.30;;;;;;4130486;28;20267;-80
2021/12/21 05:14:08;;;;;;;16.30;13.30;;;0.50;98.30;;;;;;4127014;28;20693;-80
2021/12/21 05:16:11;;;;;;;17.98;13.77;;;0.50;98.30;;;;;;4125458;28;20704;-79
2021/12/21 05:18:16;;;;;;;14.55;12.95;;;0.40;98.30;;;;;;4133689;28;20212;-79
2021/12/21 05:20:20;;;;;;;15.23;13.63;;;0.40;98.30;;;;;;4131547;28;20226;-79
2021/12/21 05:22:23;;;;;;;20.15;12.52;;;0.40;98.30;;;;;;4131266;28;20216;-81
2021/12/21 05:24:26;;;;;;;18.15;12.60;;;0.50;98.30;;;;;;4131571;28;20236;-80
2021/12/21 05:26:29;;;;;;;17.60;13.48;;;0.60;98.30;;;;;;4130960;28;20204;-80
2021/12/21 05:28:32;;;;;;;17.33;14.07;;;0.60;98.30;;;;;;4134741;28;20918;-79
2021/12/21 05:30:35;;;;;;;13.93;12.52;;;0.60;98.30;;;;;;4131460;28;20204;-79
2021/12/21 05:32:38;;;;;;;17.45;12.73;;;0.60;98.30;;;;;;4129009;28;20203;-78
2021/12/21 05:34:41;;;;;;;13.77;12.32;;;0.50;98.30;;;;;;4129262;28;20287;-79
2021/12/21 05:36:51;;;;;;;18.60;14.20;;;0.60;98.30;;;;;;4129514;28;20219;-79
2021/12/21 05:38:59;;;;;;;17.23;13.20;;;0.60;98.30;;;;;;4131641;28;20216;-79
2021/12/21 05:41:06;;;;;;;19.85;13.77;;;0.60;98.30;;;;;;4131341;28;20638;-80
2021/12/21 05:43:11;;;;;;;17.13;13.73;;;0.40;98.30;;;;;;4130250;28;20216;-80
2021/12/21 05:45:16;;;;;;;18.45;15.15;;;0.30;98.30;;;;;;4128153;28;20239;-79
2021/12/21 05:47:19;;;;;;;20.42;15.35;;;0.30;98.30;;;;;;4130266;28;20205;-79
2021/12/21 05:49:22;;;;;;;23.70;15.60;;;0.30;98.30;;;;;;4133426;28;20239;-79
2021/12/21 05:51:28;;;;;;;18.65;14.25;;;0.50;98.30;;;;;;4131456;28;20220;-79
2021/12/21 05:53:32;;;;;;;19.42;15.05;;;0.50;98.30;;;;;;4130934;28;20208;-79
2021/12/21 05:55:35;;;;;;;19.08;14.05;;;0.50;98.30;;;;;;4124195;28;20209;-79
2021/12/21 05:57:38;;;;;;;20.63;13.32;;;0.60;98.30;;;;;;4130530;28;20228;-80
2021/12/21 05:59:41;;;;;;;17.63;13.27;;;0.60;98.30;;;;;;4130569;28;20473;-79
2021/12/21 06:01:44;;;;;;;17.65;13.20;;;0.60;98.30;;;;;;4131396;28;20223;-79
2021/12/21 06:03:47;;;;;;;20.48;14.27;;;0.50;98.30;;;;;;4131113;28;20212;-81
2021/12/21 06:05:50;;;;;;;15.18;12.23;;;0.40;98.30;;;;;;4131053;28;20731;-79
2021/12/21 06:07:55;;;;;;;17.30;13.55;;;0.50;98.30;;;;;;4131098;28;20223;-79
2021/12/21 06:09:59;;;;;;;16.77;13.90;;;0.40;98.30;;;;;;4131087;28;20643;-79
2021/12/21 06:12:10;;;;;;;16.13;13.85;;;0.50;98.30;;;;;;4133484;28;20212;-79
2021/12/21 06:14:23;;;;;;;16.80;13.80;;;0.50;98.30;;;;;;4138354;28;20234;-79
2021/12/21 06:25:56;;;;;;;15.38;13.43;;;0.50;98.30;;;;;;4129701;28;20196;-80
2021/12/21 06:27:59;;;;;;;14.45;12.75;;;0.40;98.30;;;;;;4130889;28;20653;-81
2021/12/21 06:30:03;;;;;;;14.60;12.30;;;0.40;98.30;;;;;;4130857;28;20224;-79
2021/12/21 06:32:11;;;;;;;17.38;12.95;;;0.40;98.30;;;;;;4130539;28;20244;-80
2021/12/21 06:34:14;;;;;;;15.88;13.32;;;0.30;98.30;;;;;;4129633;28;20244;-80
2021/12/21 06:36:18;;;;;;;18.48;14.88;;;0.30;98.30;;;;;;4129889;28;20235;-79
2021/12/21 06:38:21;;;;;;;20.10;15.50;;;0.20;98.30;;;;;;4125161;28;20585;-80
2021/12/21 06:40:25;;;;;;;24.80;16.83;;;0.00;98.30;;;;;;4130468;28;20304;-80
2021/12/21 06:42:30;;;;;;;20.13;17.52;;;-0.10;98.30;;;;;;4132765;28;20216;-80
2021/12/21 06:44:34;;;;;;;19.02;14.65;;;-0.20;98.30;;;;;;4133417;28;20248;-80
2021/12/21 06:46:49;;;;;;;17.40;15.02;;;-0.30;98.30;;;;;;4133174;28;20220;-80
2021/12/21 06:51:19;;;;;;;18.00;15.27;;;-0.40;98.30;;;;;;4132890;28;20216;-80
2021/12/21 06:53:22;;;;;;;18.83;14.88;;;-0.50;98.30;;;;;;4131640;28;20204;-80
2021/12/21 06:55:25;;;;;;;18.60;15.35;;;-0.50;98.30;;;;;;4131946;28;20232;-80
2021/12/21 06:57:29;;;;;;;16.20;14.25;;;-0.60;98.30;;;;;;4133140;28;20632;-80
2021/12/21 06:59:32;;;;;;;15.98;14.00;;;-0.60;98.30;;;;;;4126671;28;20610;-79
2021/12/21 07:01:37;;;;;;;17.15;15.25;;;-0.50;98.30;;;;;;4133708;28;20220;-80
2021/12/21 07:03:41;;;;;;;18.30;14.65;;;-0.50;98.30;;;;;;4137114;28;20226;-79
2021/12/21 07:05:45;;;;;;;18.92;14.27;;;-0.50;98.30;;;;;;4133262;28;20221;-80
2021/12/21 07:07:49;;;;;;;17.60;14.98;;;-0.50;98.30;;;;;;4133429;28;20219;-79
2021/12/21 07:09:59;;;;;;;16.30;14.68;;;-0.50;98.30;;;;;;4131560;28;20216;-79
2021/12/21 07:12:21;;;;;;;18.08;14.80;;;-0.50;98.30;;;;;;4133065;28;20212;-79
2021/12/21 07:19:09;;;;;;;16.23;14.52;;;-0.30;98.30;;;;;;4129475;28;20220;-79
2021/12/21 07:21:12;;;;;;;16.75;14.68;;;-0.20;98.30;;;;;;4133076;28;20213;-80
2021/12/21 07:23:15;;;;;;;19.73;15.73;;;-0.20;98.30;;;;;;4131709;28;20217;-79
2021/12/21 07:25:18;;;;;;;16.67;14.98;;;-0.20;98.30;;;;;;4134256;28;20298;-80
2021/12/21 07:27:21;;;;;;;16.05;14.45;;;-0.30;98.30;;;;;;4133575;28;20227;-80
2021/12/21 07:29:25;;;;;;;18.48;14.25;;;-0.30;98.30;;;;;;4134937;28;20274;-80
2021/12/21 07:31:28;;;;;;;20.55;15.93;;;-0.40;98.30;;;;;;4133544;28;20231;-80
2021/12/21 07:33:31;;;;;;;16.67;14.18;;;-0.30;98.30;;;;;;4132755;28;20222;-81
2021/12/21 07:35:34;;;;;;;17.02;14.48;;;-0.30;98.30;;;;;;4130831;28;20307;-80
2021/12/21 07:37:37;;;;;;;21.25;15.38;;;-0.20;98.30;;;;;;4132534;28;20230;-81
2021/12/21 07:39:40;;;;;;;17.63;14.25;;;-0.20;98.30;;;;;;4132691;28;20213;-80
2021/12/21 07:41:52;;;;;;;16.33;13.90;;;-0.10;98.30;;;;;;4135580;28;20295;-80
2021/12/21 07:43:55;;;;;;;17.15;14.30;;;-0.10;98.30;;;;;;4137738;28;20236;-80
2021/12/21 07:46:00;;;;;;;16.95;14.57;;;-0.10;98.30;;;;;;4142270;28;20208;-82
2021/12/21 07:48:05;;;;;;;16.42;14.70;;;-0.10;98.30;;;;;;4141944;28;20196;-81
2021/12/21 07:50:09;;;;;;;15.48;13.82;;;-0.20;98.30;;;;;;4145328;28;20209;-83
2021/12/21 07:52:14;;;;;;;16.63;14.75;;;-0.10;98.30;;;;;;4144517;28;20239;-82
2021/12/21 07:54:17;;;;;;;18.13;12.75;;;0.00;98.30;;;;;;4145638;28;20262;-83
2021/12/21 07:56:20;;;;;;;16.67;14.88;;;0.10;98.30;;;;;;4141497;28;20208;-82
2021/12/21 07:58:29;;;;;;;15.63;13.82;;;0.20;98.30;;;;;;4138069;28;21023;-82
2021/12/21 08:00:32;;;;;;;17.60;13.45;;;0.20;98.30;;;;;;4132625;28;20230;-81
2021/12/21 08:02:39;;;;;;;15.15;13.75;;;0.30;98.30;;;;;;4131657;28;20220;-82
2021/12/21 08:04:44;;;;;;;17.13;14.52;;;0.40;98.30;;;;;;4135059;28;20767;-82
2021/12/21 08:06:48;;;;;;;15.27;13.45;;;0.50;98.30;;;;;;4135358;28;20288;-80
2021/12/21 08:08:52;;;;;;;15.43;13.82;;;0.60;98.30;;;;;;4131013;28;20201;-80
2021/12/21 08:11:09;;;;;;;17.38;13.50;;;0.70;98.30;;;;;;4127232;28;20208;-81
2021/12/21 08:13:13;;;;;;;15.75;14.15;;;0.80;98.30;;;;;;4130850;28;20208;-81
2021/12/21 08:15:15;;;;;;;16.10;13.40;;;0.90;98.30;;;;;;4130427;28;20291;-81
2021/12/21 08:17:19;;;;;;;16.15;13.35;;;0.90;98.30;;;;;;4132646;28;20216;-81
2021/12/21 08:19:24;;;;;;;15.23;12.90;;;1.00;98.30;;;;;;4133287;28;20297;-81
2021/12/21 08:21:27;;;;;;;15.52;13.57;;;1.10;98.30;;;;;;4130327;28;20311;-80
2021/12/21 08:23:30;;;;;;;15.00;13.50;;;1.20;98.30;;;;;;4126775;28;20204;-80
2021/12/21 08:25:33;;;;;;;16.02;13.40;;;1.20;98.30;;;;;;4125819;28;20315;-80
2021/12/21 08:27:36;;;;;;;15.00;13.38;;;1.20;98.30;;;;;;4132560;28;20232;-80
2021/12/21 08:29:39;;;;;;;16.48;12.65;;;1.20;98.30;;;;;;4131640;28;20283;-81
2021/12/21 08:31:42;;;;;;;15.02;13.57;;;1.20;98.30;;;;;;4129691;28;20208;-80
2021/12/21 08:33:45;;;;;;;15.27;13.15;;;1.10;98.30;;;;;;4130320;28;20595;-80
2021/12/21 08:35:49;;;;;;;15.65;14.05;;;1.10;98.30;;;;;;4125614;28;20214;-80
2021/12/21 08:38:00;;;;;;;28.48;21.88;;;1.00;98.30;;;;;;4126438;28;20283;-80
2021/12/21 08:40:03;;;;;;;25.00;20.27;;;1.00;98.30;;;;;;4128562;28;20205;-80
2021/12/21 08:42:10;;;;;;;32.30;24.95;;;1.00;98.30;;;;;;4130401;28;20212;-81
2021/12/21 08:44:20;;;;;;;21.90;17.65;;;1.00;98.30;;;;;;4125118;28;20228;-80
2021/12/21 08:46:24;;;;;;;16.80;15.10;;;1.00;98.30;;;;;;4129824;28;20216;-81
2021/12/21 08:48:27;;;;;;;20.95;15.80;;;1.10;98.30;;;;;;4128193;28;20203;-80
2021/12/21 08:50:30;;;;;;;17.08;15.30;;;1.20;98.30;;;;;;4127414;28;20208;-80
2021/12/21 08:52:36;;;;;;;18.42;15.65;;;1.30;98.30;;;;;;4128858;28;20216;-80
2021/12/21 08:54:39;;;;;;;16.38;14.70;;;1.50;98.30;;;;;;4130209;28;20247;-83
2021/12/21 08:56:44;;;;;;;14.95;13.43;;;1.50;98.30;;;;;;4127497;28;20212;-82
2021/12/21 08:58:47;;;;;;;16.92;14.85;;;1.60;98.30;;;;;;4127917;28;20228;-80
2021/12/21 09:00:50;;;;;;;16.80;14.70;;;1.60;98.30;;;;;;4127068;28;20215;-80
2021/12/21 09:02:54;;;;;;;16.33;14.63;;;1.70;98.30;;;;;;4130916;28;20283;-80
2021/12/21 09:04:57;;;;;;;15.95;14.43;;;1.90;98.30;;;;;;4131991;28;20221;-81
2021/12/21 09:07:00;;;;;;;18.48;15.70;;;2.10;98.30;;;;;;4133270;28;20216;-80
2021/12/21 09:09:05;;;;;;;17.42;15.23;;;2.30;98.30;;;;;;4130036;28;20684;-82
2021/12/21 09:11:08;;;;;;;16.13;14.55;;;2.40;98.30;;;;;;4131400;28;20204;-81
2021/12/21 09:13:12;;;;;;;16.17;14.48;;;2.50;98.30;;;;;;4131965;28;20208;-81
2021/12/21 09:15:20;;;;;;;17.95;15.35;;;2.40;98.30;;;;;;4132450;28;20234;-81
2021/12/21 09:17:24;;;;;;;16.48;14.85;;;2.30;98.30;;;;;;4132531;28;20552;-81
2021/12/21 09:19:28;;;;;;;14.60;13.27;;;2.20;98.30;;;;;;4130698;28;20231;-80
2021/12/21 09:21:35;;;;;;;16.40;14.68;;;2.20;98.30;;;;;;4128771;28;20206;-81
2021/12/21 09:23:38;;;;;;;16.63;14.88;;;2.20;98.30;;;;;;4135353;28;20595;-82
2021/12/21 09:25:42;;;;;;;16.00;14.50;;;2.30;98.30;;;;;;4130446;28;20255;-82
2021/12/21 09:27:45;;;;;;;19.15;13.90;;;2.40;98.30;;;;;;4129757;28;20274;-82
2021/12/21 09:29:48;;;;;;;14.70;13.27;;;2.50;98.30;;;;;;4128153;28;20210;-80
2021/12/21 09:31:51;;;;;;;14.98;13.30;;;2.60;98.30;;;;;;4126983;28;20212;-80
2021/12/21 09:33:54;;;;;;;15.55;13.85;;;2.60;98.30;;;;;;4127684;28;20220;-80
2021/12/21 09:35:57;;;;;;;15.90;13.95;;;2.60;98.30;;;;;;4123411;28;20667;-80
2021/12/21 09:38:00;;;;;;;15.65;13.73;;;2.60;98.30;;;;;;4130737;28;20227;-81
2021/12/21 09:40:06;;;;;;;16.05;14.00;;;2.60;98.30;;;;;;4123758;28;20714;-79
2021/12/21 09:42:14;;;;;;;17.15;15.30;;;2.60;98.30;;;;;;4130317;28;20212;-80
2021/12/21 09:44:17;;;;;;;16.75;15.00;;;2.60;98.30;;;;;;4129651;28;20311;-80
2021/12/21 09:46:20;;;;;;;17.20;15.35;;;2.60;98.30;;;;;;4126659;28;20664;-80
2021/12/21 09:48:25;;;;;;;16.08;14.52;;;2.70;98.30;;;;;;4130652;28;20211;-83
2021/12/21 09:50:29;;;;;;;17.92;16.13;;;2.60;98.30;;;;;;4130751;28;20208;-80
2021/12/21 09:52:33;;;;;;;20.63;14.70;;;2.50;98.30;;;;;;4130317;28;21524;-80
2021/12/21 09:54:37;;;;;;;20.00;16.48;;;2.40;98.30;;;;;;4130097;28;20323;-80
2021/12/21 09:56:40;;;;;;;17.90;15.98;;;2.40;98.30;;;;;;4131418;28;20287;-79
2021/12/21 09:58:46;;;;;;;17.73;15.90;;;2.40;98.30;;;;;;4132075;28;20323;-80
2021/12/21 10:00:49;;;;;;;18.20;16.40;;;2.50;98.30;;;;;;4126770;28;20214;-79
2021/12/21 10:03:03;;;;;;;17.20;15.40;;;2.70;98.30;;;;;;4127818;28;20275;-81
2021/12/21 10:05:09;;;;;;;16.38;14.68;;;2.90;98.30;;;;;;4129954;28;20517;-81
2021/12/21 10:07:13;;;;;;;16.45;14.88;;;3.00;98.30;;;;;;4130937;28;20207;-80
2021/12/21 10:09:18;;;;;;;18.25;14.98;;;3.20;98.30;;;;;;4130426;28;20276;-82
2021/12/21 10:11:43;;;;;;;20.42;16.05;;;3.30;98.30;;;;;;4125148;28;21005;-81
2021/12/21 10:13:47;;;;;;;18.52;16.38;;;3.40;98.30;;;;;;4118518;28;20213;-81
2021/12/21 10:15:52;;;;;;;15.30;13.40;;;3.50;98.30;;;;;;4133286;28;20238;-81
2021/12/21 10:17:57;;;;;;;15.32;13.73;;;3.60;98.30;;;;;;4138583;28;20200;-81
2021/12/21 10:20:01;;;;;;;16.57;13.70;;;3.70;98.30;;;;;;4135978;28;20224;-81
2021/12/21 10:22:12;;;;;;;14.40;12.90;;;3.80;98.30;;;;;;4133913;28;20514;-82
2021/12/21 10:24:23;;;;;;;16.77;15.10;;;3.80;98.30;;;;;;4130057;28;20499;-80
2021/12/21 10:26:29;;;;;;;16.70;14.10;;;3.80;98.30;;;;;;4131630;28;20466;-80
2021/12/21 10:28:35;;;;;;;18.07;15.10;;;3.80;98.30;;;;;;4127616;28;20509;-80
2021/12/21 10:30:50;;;;;;;16.00;14.60;;;3.90;98.30;;;;;;4129920;28;20467;-80
2021/12/21 10:32:54;;;;;;;18.30;13.33;;;4.00;98.30;;;;;;4133326;28;20459;-81
2021/12/21 10:35:01;;;;;;;16.63;14.83;;;4.00;98.30;;;;;;4135388;28;20487;-81
2021/12/21 10:37:04;;;;;;;14.87;13.47;;;4.10;98.30;;;;;;4135019;28;20451;-81
2021/12/21 10:39:07;;;;;;;15.27;13.67;;;4.20;98.30;;;;;;4133650;28;20467;-81
2021/12/21 10:41:15;;;;;;;14.60;13.10;;;4.40;98.30;;;;;;4135036;28;20483;-81
2021/12/21 10:43:18;;;;;;;15.03;13.43;;;4.80;98.30;;;;;;4133826;28;20944;-81
2021/12/21 10:45:33;;;;;;;13.90;12.43;;;5.20;98.30;;;;;;4134930;28;20495;-81
2021/12/21 10:47:42;;;;;;;14.43;12.80;;;5.60;98.30;;;;;;4132569;28;20498;-81
2021/12/21 10:49:45;;;;;;;16.50;12.00;;;6.00;98.30;;;;;;4134354;28;20446;-81
2021/12/21 10:51:56;;;;;;;13.23;11.83;;;6.30;98.30;;;;;;4133425;28;20975;-81
2021/12/21 10:54:00;;;;;;;15.00;11.17;;;6.60;98.30;;;;;;4134743;28;20496;-81
2021/12/21 10:56:07;;;;;;;12.60;10.83;;;6.80;98.30;;;;;;4134428;28;20477;-81
2021/12/21 10:58:15;;;;;;;14.90;11.00;;;7.10;98.30;;;;;;4134782;28;20488;-83
2021/12/21 11:01:02;;;;;;;;;;;;;;;;;;;;;
2021/12/21 11:03:35;;;;;;;12.23;9.27;;;7.60;98.30;;;;;;4131620;28;20555;-80
2021/12/21 11:11:29;;;;;;;13.47;10.50;;;8.30;98.30;;;;;;4128775;28;20456;-80
2021/12/21 11:14:13;;;;;;;12.97;11.27;;;8.50;98.30;;;;;;4131485;28;20481;-80
2021/12/21 11:16:39;;;;;;;11.27;10.17;;;8.60;98.30;;;;;;4083394;29;20477;-80